This is the latest recevied weather packets stored in our database for station/object K8BCO. If no packets are shown the sender has not sent any weather packets the latest 10 day(s).
| Time | Temp. | Humidity | Pressure | Rain* | Wind** | Luminosity | Snow |
|---|---|---|---|---|---|---|---|
| 1777909516 | 13.33° C | 61% | 991.6 hPa | 0 mm | - | 137 W/m² | - |
| 1777908916 | 14.44° C | 56% | 991.3 hPa | 0 mm | - | 301 W/m² | - |
| 1777908316 | 15° C | 55% | 991 hPa | 0 mm | - | 667 W/m² | - |
| 1777907716 | 15° C | 54% | 990.6 hPa | 0 mm | - | 565 W/m² | - |
| 1777907116 | 16.11° C | 52% | 990.3 hPa | 0 mm | - | 375 W/m² | - |
| 1777906516 | 18.89° C | 41% | 989.7 hPa | 0 mm | - | 346 W/m² | - |
| 1777905917 | 18.33° C | 39% | 989.1 hPa | 0 mm | - | 332 W/m² | - |
| 1777905317 | 18.33° C | 39% | 988.9 hPa | 0 mm | - | 416 W/m² | - |
| 1777904717 | 17.78° C | 40% | 988.7 hPa | 0 mm | - | 502 W/m² | - |
| 1777904117 | 16.67° C | 42% | 988.7 hPa | 0 mm | - | 422 W/m² | - |
| 1777903518 | 16.11° C | 43% | 988.6 hPa | 0 mm | - | 385 W/m² | - |
| 1777902923 | 15° C | 47% | 988.5 hPa | 0 mm | - | 285 W/m² | - |
| 1777902317 | 14.44° C | 50% | 988.5 hPa | 0 mm | - | 240 W/m² | - |
| 1777901723 | 15° C | 46% | 989.3 hPa | 0 mm | - | 51 W/m² | - |
| 1777901118 | 14.44° C | 48% | 989.6 hPa | 0 mm | - | 211 W/m² | - |
| 1777900521 | 13.33° C | 51% | 989.7 hPa | 0 mm | - | 220 W/m² | - |
| 1777899921 | 12.78° C | 54% | 989.7 hPa | 0 mm | - | 160 W/m² | - |
| 1777899318 | 12.22° C | 56% | 990.1 hPa | 0 mm | - | 125 W/m² | - |
| 1777898718 | 11.67° C | 57% | 990.2 hPa | 0 mm | - | 124 W/m² | - |
| 1777898118 | 11.67° C | 58% | 990.5 hPa | 0 mm | - | 90 W/m² | - |
| 1777897515 | 11.67° C | 59% | 990.7 hPa | 0 mm | - | 76 W/m² | - |
| 1777896919 | 11.11° C | 60% | 990.8 hPa | 0 mm | - | 79 W/m² | - |
| 1777896316 | 11.11° C | 61% | 991.1 hPa | 0 mm | - | 66 W/m² | - |
| 1777895719 | 11.11° C | 61% | 991.2 hPa | 0 mm | - | 55 W/m² | - |
| 1777895119 | 11.11° C | 62% | 991.3 hPa | 0 mm | - | 61 W/m² | - |
* Rain latest hour (hover to see other rain measurements)
** Current wind speed in m/s (hover to see current wind gust speed)